Time;durP1;ratioP1;P1;durP2;ratioP2;P2;SDS_P1;SDS_P2;PMS_P1;PMS_P2;Temp;Humidity;BMP_temperature;BMP_pressure;BME280_temperature;BME280_humidity;BME280_pressure;Samples;Min_cycle;Max_cycle;Signal;HPM_P1;HPM_P2
2020/12/31 00:01:54;;;;;;;3.77;3.47;;;2.60;99.30;;;;;;5072175;28;20209;-71
2020/12/31 00:04:19;;;;;;;3.83;3.53;;;2.50;99.10;;;;;;5075675;28;20627;-71
2020/12/31 00:06:45;;;;;;;3.73;3.43;;;2.50;99.30;;;;;;5078099;28;20174;-72
2020/12/31 00:09:12;;;;;;;4.20;3.90;;;2.40;99.40;;;;;;5077135;28;20183;-72
2020/12/31 00:11:38;;;;;;;4.23;3.83;;;2.40;99.30;;;;;;5074263;28;20184;-72
2020/12/31 00:14:07;;;;;;;4.20;3.80;;;2.30;99.50;;;;;;5086395;28;20224;-72
2020/12/31 00:16:36;;;;;;;4.90;4.13;;;2.30;99.50;;;;;;5079248;28;20224;-73
2020/12/31 00:19:05;;;;;;;4.50;4.10;;;2.30;99.60;;;;;;5080074;28;20218;-74
2020/12/31 00:21:30;;;;;;;4.37;3.97;;;2.30;99.60;;;;;;5076171;28;20683;-71
2020/12/31 00:23:56;;;;;;;4.10;3.80;;;2.20;99.80;;;;;;5078101;28;20207;-71
2020/12/31 00:26:22;;;;;;;4.30;3.90;;;2.10;99.90;;;;;;5084252;28;20734;-70
2020/12/31 00:28:47;;;;;;;4.43;4.03;;;2.00;99.90;;;;;;5086361;28;20266;-71
2020/12/31 00:31:13;;;;;;;4.57;4.17;;;2.00;99.90;;;;;;5080248;28;20183;-70
2020/12/31 00:33:39;;;;;;;4.33;3.97;;;2.00;99.90;;;;;;5079833;28;20627;-71
2020/12/31 00:36:04;;;;;;;4.43;4.00;;;1.90;99.90;;;;;;5081838;28;20191;-72
2020/12/31 00:38:30;;;;;;;3.93;3.63;;;1.80;99.90;;;;;;5087006;28;20194;-70
2020/12/31 00:40:56;;;;;;;4.80;4.10;;;1.80;99.90;;;;;;5085321;28;20187;-72
2020/12/31 00:43:23;;;;;;;4.60;4.20;;;1.70;99.90;;;;;;5081251;28;20480;-70
2020/12/31 00:45:48;;;;;;;4.23;3.93;;;1.70;99.90;;;;;;5081088;28;20192;-70
2020/12/31 00:48:14;;;;;;;4.63;4.07;;;1.60;99.90;;;;;;5081532;28;20182;-69
2020/12/31 00:50:40;;;;;;;4.10;3.80;;;1.60;99.90;;;;;;5085268;28;20266;-69
2020/12/31 00:53:05;;;;;;;3.97;3.60;;;1.50;99.90;;;;;;5079654;28;20265;-72
2020/12/31 00:55:31;;;;;;;5.23;4.80;;;1.40;99.90;;;;;;5081551;28;20694;-71
2020/12/31 00:57:57;;;;;;;4.20;3.80;;;1.50;99.90;;;;;;5080524;28;20364;-70
2020/12/31 01:00:22;;;;;;;4.10;3.80;;;1.40;99.90;;;;;;5079287;28;20229;-71
2020/12/31 01:02:48;;;;;;;4.67;4.27;;;1.40;99.90;;;;;;5082198;28;20232;-71
2020/12/31 01:05:14;;;;;;;4.43;4.03;;;1.30;99.90;;;;;;5082451;28;20871;-72
2020/12/31 01:07:39;;;;;;;4.20;3.80;;;1.20;99.90;;;;;;5081413;28;20187;-70
2020/12/31 01:10:06;;;;;;;3.50;3.20;;;1.20;99.90;;;;;;5089405;28;20271;-70
2020/12/31 01:12:32;;;;;;;3.67;3.37;;;1.30;99.90;;;;;;5081718;28;20188;-70
2020/12/31 01:14:57;;;;;;;3.47;3.17;;;1.40;99.90;;;;;;5082005;28;20898;-70
2020/12/31 01:17:26;;;;;;;4.90;4.40;;;1.40;99.90;;;;;;5076987;28;20179;-71
2020/12/31 01:19:55;;;;;;;4.60;4.20;;;1.50;99.90;;;;;;5084279;28;20656;-71
2020/12/31 01:22:21;;;;;;;5.40;4.90;;;1.40;99.90;;;;;;5081251;28;20217;-72
2020/12/31 01:24:47;;;;;;;5.10;4.47;;;1.40;99.90;;;;;;5087731;28;20281;-70
2020/12/31 01:27:13;;;;;;;4.90;4.50;;;1.30;99.90;;;;;;5083200;28;20736;-71
2020/12/31 01:29:39;;;;;;;5.03;4.63;;;1.30;99.90;;;;;;5088159;28;20189;-73
2020/12/31 01:32:05;;;;;;;5.00;4.50;;;1.30;99.90;;;;;;5077062;28;20178;-72
2020/12/31 01:34:30;;;;;;;4.97;4.47;;;1.30;99.90;;;;;;5093446;28;20205;-72
2020/12/31 01:36:56;;;;;;;4.07;3.53;;;1.30;99.90;;;;;;5081425;28;20190;-72
2020/12/31 01:39:23;;;;;;;4.57;4.03;;;1.40;99.90;;;;;;5078375;28;20201;-69
2020/12/31 01:41:49;;;;;;;3.90;3.60;;;1.60;99.80;;;;;;5082411;28;20203;-69
2020/12/31 01:44:15;;;;;;;4.70;3.70;;;1.60;99.60;;;;;;5086107;28;20744;-70
2020/12/31 01:46:45;;;;;;;4.47;4.07;;;1.70;99.10;;;;;;5082159;28;20193;-69
2020/12/31 01:49:13;;;;;;;4.40;4.10;;;1.70;98.80;;;;;;5090273;28;20185;-72
2020/12/31 01:51:40;;;;;;;3.43;3.13;;;1.90;98.50;;;;;;5082000;28;20205;-72
2020/12/31 01:54:07;;;;;;;4.37;3.97;;;1.90;98.20;;;;;;5086477;28;20216;-71
2020/12/31 01:56:34;;;;;;;4.10;3.80;;;2.00;97.90;;;;;;5080508;28;20233;-70
2020/12/31 01:59:00;;;;;;;4.23;3.83;;;2.00;97.80;;;;;;5078082;28;20183;-71
2020/12/31 02:01:26;;;;;;;4.40;4.00;;;2.10;97.60;;;;;;5078901;28;20211;-71
2020/12/31 02:03:54;;;;;;;4.50;4.10;;;2.00;98.10;;;;;;5077647;28;20205;-70
2020/12/31 02:06:21;;;;;;;3.87;3.53;;;2.00;98.50;;;;;;5081265;28;20180;-70
2020/12/31 02:08:48;;;;;;;4.33;3.93;;;2.00;98.50;;;;;;5076326;28;20180;-70
2020/12/31 02:11:15;;;;;;;4.13;3.73;;;1.90;98.70;;;;;;5080830;28;20186;-70
2020/12/31 02:13:47;;;;;;;4.67;4.27;;;1.90;98.90;;;;;;5077845;28;20216;-70
2020/12/31 02:16:17;;;;;;;4.53;4.13;;;1.80;99.20;;;;;;5079692;28;20941;-71
2020/12/31 02:18:54;;;;;;;5.30;4.80;;;1.80;99.50;;;;;;5076422;28;20278;-73
2020/12/31 02:21:32;;;;;;;4.80;4.40;;;1.80;99.50;;;;;;5077150;28;20250;-71
2020/12/31 02:23:59;;;;;;;4.60;4.20;;;1.70;99.30;;;;;;5082469;28;20595;-69
2020/12/31 02:26:27;;;;;;;4.60;4.23;;;1.70;99.30;;;;;;5083716;28;20180;-70
2020/12/31 02:28:54;;;;;;;4.90;4.40;;;1.70;99.10;;;;;;5085532;28;20180;-70
2020/12/31 02:31:20;;;;;;;4.80;4.40;;;1.70;99.30;;;;;;5078323;28;20183;-71
2020/12/31 02:33:47;;;;;;;5.13;4.37;;;1.70;99.40;;;;;;5090698;28;20218;-70
2020/12/31 02:36:15;;;;;;;4.97;4.53;;;1.70;99.40;;;;;;5083175;28;20560;-70
2020/12/31 02:38:41;;;;;;;5.13;4.03;;;1.70;99.60;;;;;;5077781;28;20188;-70
2020/12/31 02:41:07;;;;;;;5.70;5.10;;;1.60;99.80;;;;;;5086898;28;20248;-70
2020/12/31 02:43:34;;;;;;;5.30;4.83;;;1.60;99.80;;;;;;5079331;28;20213;-71
2020/12/31 02:45:59;;;;;;;5.13;4.63;;;1.60;99.70;;;;;;5073743;28;20236;-71
2020/12/31 02:48:25;;;;;;;4.93;4.43;;;1.60;99.50;;;;;;5083933;28;20667;-72
2020/12/31 02:50:50;;;;;;;5.27;4.77;;;1.60;99.30;;;;;;5083022;28;20611;-71
2020/12/31 02:53:16;;;;;;;6.73;4.80;;;1.60;99.20;;;;;;5077669;28;20228;-71
2020/12/31 02:55:42;;;;;;;5.00;4.33;;;1.60;99.20;;;;;;5076706;28;20532;-71
2020/12/31 02:58:07;;;;;;;4.47;4.07;;;1.60;99.00;;;;;;5088012;28;20239;-71
2020/12/31 03:00:33;;;;;;;4.33;3.80;;;1.60;98.50;;;;;;5084374;28;20179;-71
2020/12/31 03:02:59;;;;;;;4.60;4.20;;;1.50;98.80;;;;;;5075756;28;20220;-71
2020/12/31 03:05:24;;;;;;;4.57;4.17;;;1.40;99.20;;;;;;5085467;28;20208;-71
2020/12/31 03:07:50;;;;;;;6.13;4.43;;;1.30;99.40;;;;;;5076704;28;20179;-70
2020/12/31 03:10:16;;;;;;;4.53;3.97;;;1.30;99.60;;;;;;5083315;28;20183;-70
2020/12/31 03:12:41;;;;;;;5.50;5.00;;;1.20;99.50;;;;;;5078858;28;20224;-70
2020/12/31 03:15:11;;;;;;;4.17;3.77;;;1.20;99.60;;;;;;5081529;28;20722;-70
2020/12/31 03:17:40;;;;;;;3.73;3.43;;;1.10;99.20;;;;;;5074137;28;20353;-71
2020/12/31 03:20:06;;;;;;;4.33;3.93;;;1.00;99.30;;;;;;5084780;28;20286;-70
2020/12/31 03:22:33;;;;;;;3.80;3.50;;;1.00;99.30;;;;;;5082056;28;20283;-70
2020/12/31 03:24:58;;;;;;;4.50;4.10;;;0.90;99.70;;;;;;5082304;28;20214;-71
2020/12/31 03:27:24;;;;;;;4.90;4.50;;;0.80;99.90;;;;;;5072876;28;20187;-71
2020/12/31 03:29:50;;;;;;;4.70;4.30;;;0.70;99.90;;;;;;5081517;28;20529;-70
2020/12/31 03:32:16;;;;;;;6.87;4.03;;;0.70;99.90;;;;;;5081676;28;20498;-70
2020/12/31 03:34:42;;;;;;;7.90;4.27;;;0.60;99.90;;;;;;5076587;28;20209;-69
2020/12/31 03:37:08;;;;;;;4.90;4.30;;;0.60;99.90;;;;;;5077980;28;20190;-69
2020/12/31 03:39:33;;;;;;;5.10;4.47;;;0.60;99.90;;;;;;5077892;28;20694;-70
2020/12/31 03:42:00;;;;;;;5.87;3.90;;;0.60;99.90;;;;;;5085714;28;20214;-70
2020/12/31 03:44:25;;;;;;;4.43;4.03;;;0.60;99.90;;;;;;5076092;28;20202;-71
2020/12/31 03:46:51;;;;;;;4.87;4.47;;;0.70;99.90;;;;;;5078639;28;20189;-73
2020/12/31 03:49:17;;;;;;;4.90;4.40;;;0.70;99.90;;;;;;5077630;28;20186;-70
2020/12/31 03:51:42;;;;;;;4.87;4.43;;;0.60;99.90;;;;;;5078338;28;20215;-71
2020/12/31 03:54:08;;;;;;;5.30;4.80;;;0.60;99.90;;;;;;5077395;28;20834;-68
2020/12/31 03:56:35;;;;;;;4.97;4.03;;;0.50;99.90;;;;;;5081369;28;20183;-70
2020/12/31 03:59:01;;;;;;;5.37;4.27;;;0.50;99.90;;;;;;5078253;28;20266;-70
2020/12/31 04:01:30;;;;;;;4.97;3.97;;;0.40;99.90;;;;;;5079643;28;20351;-70
2020/12/31 04:03:56;;;;;;;4.63;4.23;;;0.40;99.90;;;;;;5075299;28;20760;-70
2020/12/31 04:06:21;;;;;;;5.27;4.77;;;0.40;99.90;;;;;;5081277;28;20174;-71
2020/12/31 04:08:47;;;;;;;4.73;4.23;;;0.30;99.90;;;;;;5076697;28;20179;-70
2020/12/31 04:11:13;;;;;;;4.73;4.10;;;0.30;99.90;;;;;;5083143;28;20178;-71
2020/12/31 04:13:38;;;;;;;5.10;4.60;;;0.30;99.90;;;;;;5083064;28;20203;-71
2020/12/31 04:16:04;;;;;;;5.67;4.20;;;0.40;99.90;;;;;;5081964;28;20712;-69
2020/12/31 04:18:30;;;;;;;3.60;3.30;;;0.40;99.90;;;;;;5077649;28;20182;-72
2020/12/31 04:20:57;;;;;;;4.27;3.87;;;0.30;99.90;;;;;;5076792;28;20649;-69
2020/12/31 04:23:22;;;;;;;4.30;3.90;;;0.20;99.80;;;;;;5076179;28;20217;-71
2020/12/31 04:25:49;;;;;;;5.07;3.80;;;0.20;99.60;;;;;;5083095;28;20748;-71
2020/12/31 04:28:15;;;;;;;4.47;3.83;;;0.20;99.20;;;;;;5085101;28;20848;-70
2020/12/31 04:30:40;;;;;;;4.23;3.83;;;0.20;99.30;;;;;;5071623;28;20187;-71
2020/12/31 04:33:06;;;;;;;5.60;4.20;;;0.10;99.40;;;;;;5076079;28;20183;-71
2020/12/31 04:35:32;;;;;;;4.17;3.77;;;0.20;99.10;;;;;;5075316;28;20233;-72
2020/12/31 04:37:58;;;;;;;5.00;3.83;;;0.30;98.40;;;;;;5086520;28;20689;-73
2020/12/31 04:40:23;;;;;;;6.03;4.07;;;0.30;98.30;;;;;;5081659;28;20214;-73
2020/12/31 04:42:52;;;;;;;4.03;3.67;;;0.30;98.40;;;;;;5074605;28;20297;-70
2020/12/31 04:45:19;;;;;;;4.60;3.93;;;0.30;98.70;;;;;;5080908;28;20196;-72
2020/12/31 04:48:06;;;;;;;4.93;4.50;;;0.20;98.80;;;;;;5080340;28;20200;-72
2020/12/31 04:50:42;;;;;;;4.63;3.90;;;0.20;99.00;;;;;;5077936;28;20205;-72
2020/12/31 04:53:09;;;;;;;5.33;4.63;;;0.10;99.00;;;;;;5075721;28;20253;-71
2020/12/31 04:55:43;;;;;;;4.03;3.70;;;0.10;99.00;;;;;;5083879;28;20178;-72
2020/12/31 04:58:10;;;;;;;4.30;3.90;;;0.10;98.90;;;;;;5087817;28;20182;-69
2020/12/31 05:00:37;;;;;;;4.60;4.10;;;0.10;99.10;;;;;;5077103;28;20183;-71
2020/12/31 05:03:03;;;;;;;3.97;3.57;;;0.10;99.40;;;;;;5079429;28;20238;-70
2020/12/31 05:05:29;;;;;;;4.20;3.80;;;0.00;99.60;;;;;;5079984;28;20209;-73
2020/12/31 05:07:55;;;;;;;3.83;3.43;;;0.00;99.60;;;;;;5080217;28;20720;-70
2020/12/31 05:10:21;;;;;;;5.57;4.60;;;0.00;99.60;;;;;;5077141;28;20185;-71
2020/12/31 05:12:59;;;;;;;4.67;4.17;;;0.00;99.60;;;;;;5086925;28;20695;-70
2020/12/31 05:15:40;;;;;;;4.57;4.17;;;-0.10;99.60;;;;;;5088550;28;20254;-70
2020/12/31 05:18:35;;;;;;;4.93;4.43;;;-0.10;99.60;;;;;;5077145;28;20273;-71
2020/12/31 05:21:01;;;;;;;5.00;4.50;;;0.00;99.40;;;;;;5063373;28;20705;-70
2020/12/31 05:23:28;;;;;;;5.00;4.50;;;-0.10;99.40;;;;;;5064102;28;20241;-70
2020/12/31 05:25:55;;;;;;;6.17;4.67;;;0.00;99.20;;;;;;5062881;28;20236;-72
2020/12/31 05:28:28;;;;;;;6.67;4.87;;;0.10;99.00;;;;;;5061152;28;20187;-69
2020/12/31 05:30:57;;;;;;;5.33;4.63;;;0.10;99.00;;;;;;5041776;28;20248;-71
2020/12/31 05:33:27;;;;;;;8.77;5.60;;;0.00;99.00;;;;;;5062456;28;20566;-69
2020/12/31 05:36:10;;;;;;;6.43;5.63;;;0.00;99.10;;;;;;5061245;28;20291;-69
2020/12/31 05:38:35;;;;;;;5.63;4.73;;;0.00;99.20;;;;;;5060549;28;20199;-71
2020/12/31 05:41:03;;;;;;;7.33;5.97;;;0.10;99.60;;;;;;5063856;28;20656;-70
2020/12/31 05:43:28;;;;;;;5.77;5.17;;;0.00;99.40;;;;;;5061884;28;20244;-70
2020/12/31 05:46:08;;;;;;;6.10;5.50;;;0.00;99.60;;;;;;5062020;28;20329;-70
2020/12/31 05:48:34;;;;;;;7.60;5.20;;;0.00;99.30;;;;;;5062479;28;20191;-72
2020/12/31 05:51:19;;;;;;;6.50;5.30;;;0.00;99.30;;;;;;5044916;28;20697;-69
2020/12/31 05:53:47;;;;;;;6.53;5.83;;;0.00;99.00;;;;;;5055055;28;20214;-71
2020/12/31 05:56:15;;;;;;;5.90;5.40;;;0.00;98.90;;;;;;5053802;28;20654;-70
2020/12/31 05:58:45;;;;;;;6.60;5.90;;;0.00;99.30;;;;;;5082018;28;20257;-70
2020/12/31 06:01:13;;;;;;;6.10;5.37;;;0.10;99.00;;;;;;5084930;28;20182;-70
2020/12/31 06:03:49;;;;;;;6.00;5.40;;;0.10;98.50;;;;;;5081542;28;20715;-71
2020/12/31 06:06:17;;;;;;;6.00;5.23;;;0.10;98.30;;;;;;5086965;28;20185;-71
2020/12/31 06:09:13;;;;;;;7.40;5.80;;;0.20;97.80;;;;;;5082159;28;20253;-71
2020/12/31 06:11:50;;;;;;;6.63;6.00;;;0.30;97.60;;;;;;5078922;28;20197;-71
2020/12/31 06:14:23;;;;;;;5.97;5.37;;;0.30;97.40;;;;;;5079017;28;20687;-70
2020/12/31 06:16:58;;;;;;;5.60;5.10;;;0.40;97.30;;;;;;5080880;28;20203;-71
2020/12/31 06:19:36;;;;;;;6.50;5.47;;;0.30;97.40;;;;;;5088728;28;20228;-70
2020/12/31 06:22:12;;;;;;;6.03;5.43;;;0.30;97.50;;;;;;5079848;28;20580;-70
2020/12/31 06:24:37;;;;;;;5.90;5.30;;;0.30;97.70;;;;;;5075279;28;20210;-71
2020/12/31 06:27:14;;;;;;;5.83;5.20;;;0.20;98.10;;;;;;5078795;28;20235;-72
2020/12/31 06:29:46;;;;;;;6.30;5.47;;;0.10;98.40;;;;;;5078546;28;20189;-70
2020/12/31 06:32:16;;;;;;;5.30;4.80;;;0.10;98.50;;;;;;5079643;28;20198;-69
2020/12/31 06:34:42;;;;;;;6.20;5.70;;;0.00;98.60;;;;;;5082773;28;20197;-71
2020/12/31 06:37:09;;;;;;;6.23;5.40;;;0.00;98.80;;;;;;5072499;28;20249;-70
2020/12/31 06:39:36;;;;;;;6.23;5.63;;;-0.10;99.00;;;;;;5071598;28;20235;-71
2020/12/31 06:42:02;;;;;;;7.00;6.30;;;-0.10;99.50;;;;;;5076059;28;20202;-70
2020/12/31 06:44:30;;;;;;;6.67;6.07;;;-0.20;99.60;;;;;;5078770;28;20206;-70
2020/12/31 06:46:56;;;;;;;7.03;6.33;;;-0.10;99.60;;;;;;5078794;28;20180;-71
2020/12/31 06:49:21;;;;;;;7.03;6.23;;;0.00;99.40;;;;;;5084459;28;20207;-70
2020/12/31 06:51:47;;;;;;;7.33;6.60;;;0.10;99.30;;;;;;5076376;28;20653;-70
2020/12/31 06:54:28;;;;;;;8.73;7.63;;;0.10;99.20;;;;;;5078485;28;20225;-71
2020/12/31 06:56:53;;;;;;;7.13;6.40;;;0.20;99.20;;;;;;5075457;28;20263;-71
2020/12/31 06:59:34;;;;;;;8.40;7.37;;;0.20;99.00;;;;;;5088275;28;20280;-70
2020/12/31 07:02:02;;;;;;;9.17;7.60;;;0.30;99.00;;;;;;5084734;28;20205;-70
2020/12/31 07:04:30;;;;;;;7.93;7.13;;;0.40;98.90;;;;;;5084170;28;20204;-70
2020/12/31 07:06:57;;;;;;;8.70;7.80;;;0.40;98.80;;;;;;5083268;28;20230;-71
2020/12/31 07:09:37;;;;;;;9.03;7.60;;;0.50;98.80;;;;;;5089449;28;20178;-71
2020/12/31 07:12:05;;;;;;;22.10;15.20;;;0.50;98.70;;;;;;5086490;28;20564;-70
2020/12/31 07:14:33;;;;;;;12.77;11.03;;;0.50;98.60;;;;;;5079571;28;20580;-70
2020/12/31 07:17:07;;;;;;;14.47;11.47;;;0.60;98.50;;;;;;5077932;28;20619;-70
2020/12/31 07:19:40;;;;;;;13.50;12.20;;;0.60;98.30;;;;;;5075385;28;20246;-70
2020/12/31 07:22:11;;;;;;;11.83;10.60;;;0.70;98.20;;;;;;5077458;28;20711;-71
2020/12/31 07:24:48;;;;;;;9.57;8.67;;;0.70;98.00;;;;;;5079620;28;20209;-71
2020/12/31 07:27:27;;;;;;;9.20;8.30;;;0.80;97.90;;;;;;5079013;28;20178;-72
2020/12/31 07:30:00;;;;;;;9.43;8.53;;;0.80;97.80;;;;;;5081504;28;20181;-69
2020/12/31 07:32:59;;;;;;;9.77;8.33;;;0.80;97.70;;;;;;5076643;28;20799;-71
2020/12/31 07:35:36;;;;;;;8.30;7.50;;;0.90;97.50;;;;;;5080285;28;20205;-70
2020/12/31 07:38:10;;;;;;;8.77;7.93;;;1.00;97.30;;;;;;5084444;28;20209;-70
2020/12/31 07:40:42;;;;;;;9.53;8.30;;;1.00;97.10;;;;;;5077793;28;20244;-70
2020/12/31 07:43:12;;;;;;;8.17;7.27;;;1.10;97.10;;;;;;5075153;28;20214;-70
2020/12/31 07:45:43;;;;;;;9.03;7.97;;;1.20;97.00;;;;;;5078099;28;20299;-72
2020/12/31 07:48:10;;;;;;;9.03;8.13;;;1.30;96.70;;;;;;5083479;28;20615;-70
2020/12/31 07:50:35;;;;;;;7.97;7.17;;;1.40;96.50;;;;;;5076956;28;20211;-71
2020/12/31 07:53:01;;;;;;;7.90;7.20;;;1.80;96.00;;;;;;5084658;28;20212;-72
2020/12/31 07:55:27;;;;;;;8.80;7.17;;;2.30;94.60;;;;;;5080277;28;20202;-71
2020/12/31 07:57:53;;;;;;;8.57;7.60;;;2.50;93.60;;;;;;5082301;28;20179;-72
2020/12/31 08:00:21;;;;;;;8.67;7.77;;;2.50;93.40;;;;;;5087900;28;20190;-71
2020/12/31 08:02:57;;;;;;;8.40;7.60;;;2.30;93.70;;;;;;5075856;28;20297;-70
2020/12/31 08:05:27;;;;;;;8.63;7.83;;;2.30;93.90;;;;;;5076952;28;20703;-71
2020/12/31 08:07:53;;;;;;;8.07;7.27;;;2.30;94.20;;;;;;5084439;28;20199;-71
2020/12/31 08:10:19;;;;;;;8.87;7.97;;;2.30;94.10;;;;;;5080784;28;20237;-71
2020/12/31 08:13:01;;;;;;;8.53;7.60;;;2.30;94.10;;;;;;5076443;28;20193;-72
2020/12/31 08:15:28;;;;;;;8.30;7.50;;;2.30;94.20;;;;;;5080011;28;20194;-72
2020/12/31 08:17:56;;;;;;;8.87;7.97;;;2.30;94.50;;;;;;5077527;28;20182;-71
2020/12/31 08:20:29;;;;;;;9.33;8.43;;;2.30;94.50;;;;;;5076734;28;20197;-70
2020/12/31 08:22:56;;;;;;;8.60;7.80;;;2.40;94.10;;;;;;5086919;28;20266;-70
2020/12/31 08:25:24;;;;;;;8.80;7.90;;;2.50;93.90;;;;;;5082708;28;20208;-72
2020/12/31 08:27:52;;;;;;;10.00;9.00;;;2.50;93.80;;;;;;5081740;28;20185;-71
2020/12/31 08:30:20;;;;;;;10.50;9.40;;;2.60;93.50;;;;;;5079717;28;20241;-71
2020/12/31 08:32:57;;;;;;;8.80;7.83;;;2.70;93.50;;;;;;5079009;28;20266;-71
2020/12/31 08:35:27;;;;;;;10.60;9.23;;;2.60;93.40;;;;;;5082107;28;20215;-71
2020/12/31 08:38:13;;;;;;;11.83;10.63;;;2.60;93.70;;;;;;5079575;28;20227;-71
2020/12/31 08:40:46;;;;;;;8.93;8.13;;;2.60;94.00;;;;;;5082118;28;20178;-71
2020/12/31 08:43:25;;;;;;;9.50;8.60;;;2.60;93.90;;;;;;5081083;28;20281;-70
2020/12/31 08:45:56;;;;;;;10.33;9.33;;;2.60;93.90;;;;;;5078440;28;20192;-70
2020/12/31 08:48:26;;;;;;;9.03;7.70;;;2.60;94.00;;;;;;5081050;28;20228;-71
2020/12/31 08:51:09;;;;;;;10.87;8.33;;;2.70;93.70;;;;;;5077621;28;20654;-71
2020/12/31 08:54:01;;;;;;;9.03;8.13;;;2.70;93.40;;;;;;5082094;28;20203;-71
2020/12/31 08:56:29;;;;;;;9.00;7.87;;;2.80;93.80;;;;;;5076027;28;20656;-72
2020/12/31 08:59:14;;;;;;;9.77;8.23;;;2.80;93.80;;;;;;5077747;28;20197;-71
2020/12/31 09:01:44;;;;;;;9.37;8.47;;;2.70;94.20;;;;;;5084019;28;20707;-72
2020/12/31 09:04:18;;;;;;;9.47;8.47;;;2.70;94.50;;;;;;5084564;28;20194;-72
2020/12/31 09:06:46;;;;;;;9.10;8.20;;;2.70;94.50;;;;;;5083171;28;20189;-72
2020/12/31 09:09:22;;;;;;;9.40;8.50;;;2.70;94.70;;;;;;5083391;28;20206;-73
2020/12/31 09:12:00;;;;;;;9.73;8.73;;;2.60;94.70;;;;;;5085395;28;20251;-72
2020/12/31 09:14:27;;;;;;;11.03;9.60;;;2.70;94.70;;;;;;5086917;28;20205;-71
2020/12/31 09:16:53;;;;;;;9.70;8.70;;;2.70;95.40;;;;;;5080992;28;20207;-72
2020/12/31 09:19:22;;;;;;;10.20;8.90;;;2.60;94.70;;;;;;5083833;28;20277;-72
2020/12/31 09:21:48;;;;;;;9.37;8.40;;;2.70;94.70;;;;;;5084746;28;20251;-74
2020/12/31 09:24:19;;;;;;;9.70;8.40;;;2.70;94.40;;;;;;5081256;28;20592;-72
2020/12/31 09:26:56;;;;;;;9.57;8.67;;;2.70;94.20;;;;;;5077976;28;20296;-74
2020/12/31 09:29:22;;;;;;;10.37;8.77;;;2.80;94.30;;;;;;5078993;28;20260;-73
2020/12/31 09:31:48;;;;;;;8.87;7.97;;;2.80;94.30;;;;;;5079218;28;20179;-71
2020/12/31 09:34:14;;;;;;;9.10;8.20;;;2.90;94.00;;;;;;5081093;28;20583;-70
2020/12/31 09:36:40;;;;;;;9.63;8.63;;;3.00;94.00;;;;;;5084100;28;20266;-72
2020/12/31 09:39:06;;;;;;;9.60;8.57;;;3.10;93.90;;;;;;5093194;28;20604;-71
2020/12/31 09:41:31;;;;;;;9.07;8.20;;;3.10;93.80;;;;;;5084366;28;20204;-70
2020/12/31 09:43:57;;;;;;;10.20;8.60;;;3.30;93.70;;;;;;5077178;28;20255;-72
2020/12/31 09:46:23;;;;;;;9.43;8.53;;;3.40;93.50;;;;;;5084508;28;20821;-71
2020/12/31 09:48:50;;;;;;;9.67;8.70;;;3.40;93.10;;;;;;5086382;28;20179;-72
2020/12/31 09:51:19;;;;;;;9.73;8.40;;;3.50;93.20;;;;;;5081466;28;21265;-72
2020/12/31 09:53:46;;;;;;;8.87;7.97;;;3.60;92.60;;;;;;5081217;28;20268;-72
2020/12/31 09:56:12;;;;;;;8.60;7.80;;;3.70;92.00;;;;;;5082847;28;20174;-72
2020/12/31 09:58:41;;;;;;;8.17;7.37;;;3.70;91.90;;;;;;5083934;28;20263;-72
2020/12/31 10:01:08;;;;;;;8.60;7.80;;;3.70;92.00;;;;;;5085537;28;20180;-71
2020/12/31 10:03:33;;;;;;;8.53;7.73;;;3.80;91.80;;;;;;5078505;28;20846;-71
2020/12/31 10:05:59;;;;;;;15.00;7.90;;;3.80;91.40;;;;;;5084738;28;20178;-72
2020/12/31 10:08:25;;;;;;;9.90;7.77;;;3.80;91.50;;;;;;5079843;28;20174;-70
2020/12/31 10:10:51;;;;;;;8.65;7.85;;;4.00;91.10;;;;;;5082681;28;20919;-72
2020/12/31 10:13:16;;;;;;;8.23;7.43;;;4.20;90.50;;;;;;5076074;28;20232;-73
2020/12/31 10:15:42;;;;;;;8.07;7.27;;;4.30;88.30;;;;;;5075571;28;20294;-73
2020/12/31 10:18:08;;;;;;;7.90;7.10;;;4.60;88.10;;;;;;5080117;28;20179;-71
2020/12/31 10:20:33;;;;;;;8.17;7.37;;;4.90;87.70;;;;;;5078580;28;20234;-72
2020/12/31 10:22:59;;;;;;;20.50;15.00;;;5.10;86.60;;;;;;5081729;28;20213;-72
2020/12/31 10:25:25;;;;;;;8.87;7.97;;;5.50;84.90;;;;;;5081235;28;20271;-73
2020/12/31 10:27:51;;;;;;;7.47;6.77;;;5.60;83.20;;;;;;5085734;28;20193;-71
2020/12/31 10:30:16;;;;;;;7.20;6.50;;;5.80;81.00;;;;;;5078705;28;20189;-73
2020/12/31 10:32:42;;;;;;;6.73;6.13;;;6.40;77.50;;;;;;5086258;28;20200;-72
2020/12/31 10:35:08;;;;;;;8.60;6.80;;;6.60;74.00;;;;;;5082637;28;20806;-70
2020/12/31 10:37:33;;;;;;;6.43;5.83;;;6.50;73.20;;;;;;5077207;28;20564;-71
2020/12/31 10:39:59;;;;;;;7.50;6.80;;;5.80;76.30;;;;;;5079196;28;20191;-70
2020/12/31 10:42:25;;;;;;;7.23;6.50;;;5.50;78.40;;;;;;5074241;28;20243;-70
2020/12/31 10:44:50;;;;;;;7.00;6.40;;;5.10;80.20;;;;;;5075120;28;20231;-70
2020/12/31 10:47:16;;;;;;;8.73;7.93;;;4.60;82.80;;;;;;5080926;28;20186;-70
2020/12/31 10:49:42;;;;;;;7.63;6.93;;;4.20;85.50;;;;;;5074110;28;20191;-70
2020/12/31 10:52:07;;;;;;;7.83;7.03;;;4.00;88.30;;;;;;5076197;28;20264;-70
2020/12/31 10:54:33;;;;;;;8.93;8.03;;;3.80;90.50;;;;;;5081305;28;20304;-70
2020/12/31 10:56:59;;;;;;;7.67;6.93;;;3.70;91.70;;;;;;5075316;28;20619;-69
2020/12/31 10:59:25;;;;;;;6.87;6.17;;;3.60;92.60;;;;;;5083194;28;20236;-72
2020/12/31 11:01:54;;;;;;;7.83;7.03;;;3.40;93.60;;;;;;5073868;28;20679;-69
2020/12/31 11:04:21;;;;;;;8.50;7.60;;;3.30;94.00;;;;;;5078579;28;20196;-70
2020/12/31 11:06:47;;;;;;;7.90;7.10;;;3.20;94.90;;;;;;5082058;28;20174;-70
2020/12/31 11:09:14;;;;;;;8.57;7.77;;;3.20;95.30;;;;;;5077504;28;20598;-69
2020/12/31 11:11:41;;;;;;;7.37;6.57;;;3.20;96.20;;;;;;5076990;28;20660;-70
2020/12/31 11:14:07;;;;;;;8.40;6.63;;;3.30;96.20;;;;;;5082008;28;20220;-70
2020/12/31 11:16:32;;;;;;;8.07;7.37;;;3.40;95.50;;;;;;5081774;28;20192;-71
2020/12/31 11:18:58;;;;;;;8.00;7.20;;;3.60;95.90;;;;;;5075929;28;20189;-71
2020/12/31 11:21:25;;;;;;;7.40;6.80;;;3.90;94.90;;;;;;5084546;28;20201;-70
2020/12/31 11:23:51;;;;;;;7.80;7.00;;;4.30;94.00;;;;;;5082633;28;20572;-70
2020/12/31 11:26:19;;;;;;;6.90;5.77;;;4.70;92.80;;;;;;5077285;28;20715;-70
2020/12/31 11:28:46;;;;;;;6.87;6.27;;;5.10;91.40;;;;;;5074503;28;20185;-70
2020/12/31 11:31:12;;;;;;;6.73;6.13;;;6.00;90.20;;;;;;5079442;28;20599;-70
2020/12/31 11:33:39;;;;;;;7.00;6.40;;;6.50;83.50;;;;;;5073120;28;20210;-70
2020/12/31 11:36:06;;;;;;;7.07;6.37;;;6.40;81.20;;;;;;5077892;28;20195;-71
2020/12/31 11:38:32;;;;;;;7.60;6.43;;;6.10;81.80;;;;;;5077472;28;20284;-70
2020/12/31 11:40:57;;;;;;;7.77;7.07;;;5.50;83.80;;;;;;5083170;28;20264;-70
2020/12/31 11:43:23;;;;;;;6.97;6.37;;;5.20;87.30;;;;;;5071110;28;20592;-72
2020/12/31 11:45:49;;;;;;;7.27;6.57;;;4.90;90.00;;;;;;5076604;28;20717;-72
2020/12/31 11:48:14;;;;;;;8.13;7.37;;;4.70;91.30;;;;;;5075172;28;20278;-70
2020/12/31 11:50:40;;;;;;;6.93;6.33;;;4.60;91.90;;;;;;5073808;28;20210;-71
2020/12/31 11:53:06;;;;;;;6.97;6.37;;;4.60;92.00;;;;;;5080703;28;20523;-70
2020/12/31 11:55:31;;;;;;;10.67;9.57;;;4.60;92.60;;;;;;5077808;28;20203;-70
2020/12/31 11:57:57;;;;;;;8.07;7.27;;;4.60;93.10;;;;;;5074882;28;20190;-70
2020/12/31 12:00:23;;;;;;;8.00;7.20;;;4.40;93.50;;;;;;5075270;28;20183;-69
2020/12/31 12:02:48;;;;;;;6.90;6.30;;;4.40;94.20;;;;;;5078498;28;20210;-70
2020/12/31 12:05:14;;;;;;;7.37;6.67;;;4.30;94.50;;;;;;5086173;28;20677;-69
2020/12/31 12:07:39;;;;;;;7.80;7.03;;;4.20;94.50;;;;;;5089033;28;20191;-69
2020/12/31 12:10:06;;;;;;;7.33;6.63;;;4.10;94.50;;;;;;5077853;28;20219;-70
2020/12/31 12:12:31;;;;;;;7.27;6.50;;;4.00;95.00;;;;;;5081293;28;20190;-70
2020/12/31 12:14:57;;;;;;;7.53;6.83;;;4.00;95.60;;;;;;5091311;28;20212;-70
2020/12/31 12:17:22;;;;;;;7.63;6.67;;;3.90;95.60;;;;;;5078917;28;20187;-71
2020/12/31 12:19:48;;;;;;;8.07;7.37;;;3.80;96.00;;;;;;5081699;28;20252;-71
2020/12/31 12:22:14;;;;;;;8.17;7.37;;;3.80;96.60;;;;;;5078382;28;20633;-70
2020/12/31 12:24:39;;;;;;;7.27;6.57;;;3.80;96.60;;;;;;5081532;28;20224;-70
2020/12/31 12:27:07;;;;;;;6.87;6.27;;;3.90;96.50;;;;;;5080514;28;20184;-70
2020/12/31 12:29:33;;;;;;;6.97;5.97;;;4.00;96.80;;;;;;5080637;28;20224;-70
2020/12/31 12:31:59;;;;;;;6.20;5.60;;;4.00;96.70;;;;;;5084725;28;20673;-70
2020/12/31 12:34:25;;;;;;;7.03;6.33;;;3.90;97.00;;;;;;5081539;28;20199;-70
2020/12/31 12:36:51;;;;;;;7.23;6.07;;;4.00;97.30;;;;;;5085756;28;20197;-70
2020/12/31 12:39:17;;;;;;;7.27;6.67;;;4.00;97.30;;;;;;5085808;28;20336;-69
2020/12/31 12:41:43;;;;;;;7.47;6.77;;;4.00;97.20;;;;;;5086291;28;20725;-71
2020/12/31 12:44:09;;;;;;;7.63;6.93;;;4.00;97.10;;;;;;5088692;28;20235;-71
2020/12/31 12:46:35;;;;;;;7.53;6.83;;;4.00;97.40;;;;;;5082726;28;20207;-72
2020/12/31 12:49:01;;;;;;;7.80;7.10;;;4.00;97.70;;;;;;5085279;28;20173;-71
2020/12/31 12:51:31;;;;;;;8.87;7.97;;;3.90;98.00;;;;;;5085686;28;20252;-70
2020/12/31 12:53:57;;;;;;;7.50;6.77;;;3.90;97.90;;;;;;5086315;28;20755;-71
2020/12/31 12:56:22;;;;;;;7.60;6.70;;;3.90;97.70;;;;;;5087458;28;20190;-71
2020/12/31 12:58:48;;;;;;;7.93;6.27;;;3.90;98.00;;;;;;5088433;28;20185;-71
2020/12/31 13:01:14;;;;;;;7.63;6.93;;;3.80;98.00;;;;;;5087122;28;20259;-70